Archival Weather

Republic

Farmingdale, New York (KFRG)

Report from: Monday, February 12, 2024 11:53 PM EST
Current time: Saturday, June 22, 2024 6:40 AM EDT

Current weather – Weather history – Daily summaries
Weather forecast

Temperature3.9°C (39.0°F)
Wind chill0.8°C (33.4°F)
Dew point-2.2°C (28.0°F)
Winds 7 kts (3.6 m/s, 8.1 mph) Northeast (40°)
Visibility10 mi. (16.1 km)
Clouds Ceiling: Overcast 7,500 ft. (2,286 m)
Altimeter29.74 in.Hg (1007 mB)
Relative humidity64 %
Density altitude-1,050 ft. (-320 m)
Sea-level pressure100.7 kPa (1007 mB, 29.74 in.Hg)
Max temp last 24 hours7.8°C (46.0°F)
Min temp last 24 hours1.1°C (34.0°F)
Remarks Fully automated report
Automated weather observing station without precipitation discriminator
Flight conditions Visual Meteorological Conditions
Raw dataKFRG 130453Z AUTO 04007KT 10SM OVC075 04/M02 A2974 RMK AO1 SLP070 T00391022 400780011
An error has occurred. This application may no longer respond until reloaded. Reload 🗙